Airfield :
LOGIN :

Register | Disclaimer

   EN    FR    IT 

 










Legend :    VFR   Marginal VFR   IFR   Intensive IFR   Very Intensive IFR
Visi :
Ceiling :
>= 8 km
>= 3000ft
5 to 8 km
1000 to 3000 ft
1500m to 5 km
500 to 1000 ft
800 to 1500m
200 to 500 ft
< 800m
< 200 ft
Symbols :   Thunderstorms  Fog  Heavy snow  Heavy precipitations  Wind > 20 kt
SIGMETs :     Misc.  Thunderstorms  Icing  Turbulence  Mountain Waves  Volcanic Ashes






- Airport Elevation : 245 ft
- IATA code : BIQ


LFBZ - Biarritz

CURRENT METAR :
  • 240500Z AUTO 22007KT 190V270 9999 -RADZ BKN026/// BKN032/// OVC038/// ///TCU 12/10 Q1012 TEMPO 24015G35KT 4000 RA OVC012 SCT045CB

EXPIRED METARs :
  • 240430Z AUTO 21005KT 150V260 9999 BKN027/// BKN034/// BKN052/// ///TCU 12/10 Q1011 TEMPO 24015G35KT 4000 RA OVC012 SCT045CB
  • 240400Z AUTO 22007KT 160V290 9999 -RA FEW023/// SCT029/// BKN035/// ///TCU 11/10 Q1011 TEMPO 24015G35KT 4000 RA OVC012 SCT045CB
  • 240330Z AUTO 23007KT 180V280 9999 -RA FEW021/// SCT030/// BKN035/// ///TCU 11/11 Q1011 TEMPO 24015G35KT 4000 RA OVC012
  • 240300Z AUTO 22008KT 170V280 9000 RA BKN027/// BKN034/// OVC072/// ///CB 12/11 Q1011 TEMPO 24015G35KT 4000 RA OVC012
  • 240230Z AUTO 22009KT 190V270 9999 -RA FEW019/// BKN024/// BKN029/// ///TCU 12/11 Q1010 TEMPO 24015G35KT 4000 RA OVC012
  • 240200Z AUTO 23010KT 190V280 9999 -RA FEW016/// BKN027/// OVC034/// ///TCU 12/11 Q1010 TEMPO 24015G35KT 4000 RA OVC012

TAF AMD TAF LFBZ
Valid from the 24 at 03:00 until the 25 at 00:00 UTC


240314Z 2403/2424 24010KT 7000 -RA BKN020
TEMPO 2403/2408 24015G35KT 4000 RA OVC012 SCT045CB
BECMG 2419/2421 NSW



MET'MAP, your aeronautical weather chart ! - Copyright ORBIFLY December 2007 - Disclaimer

ORBIFLY MET'MAP TEAM :

Programming & Development : Alexandra Zaïnal
Concept & Development : Baudouin d'Aumeries
Co-Development & Prog : Marc-Olivier Méhu
Technical & hardware support : Manuel Goepfert

Contact : metmap@orbifly.com




SOURCES & CREDITS :

   NOAA